EBAW/ANR METAR and TAF weather

Enter ICAO airport designator
Station Type Date Time Source
EBAW METAR 2019/02/20 23:20 UTC NOAA

EBAW 202320Z AUTO 21005KT CAVOK 07/04 Q1024


Station Type Date Time Source
EBAW Decoded METAR 2019/02/20 23:20 UTC NOAA

Antwerpen / Deurne, Belgium (EBAW) 51-12N 004-28E 14M
Feb 20, 2019 - 06:20 PM EST / 2019.02.20 2320 UTC
Wind: from the SSW (210 degrees) at 6 MPH (5 KT):0
Visibility: greater than 7 mile(s):0
Temperature: 44 F (7 C)
Dew Point: 39 F (4 C)
Relative Humidity: 81%
Pressure (altimeter): 30.24 in. Hg (1024 hPa)
ob: EBAW 202320Z AUTO 21005KT CAVOK 07/04 Q1024
cycle: 23

Station Type Date Time Source
EBAW TAF 2018/10/03 03:27 UTC NOAA

TAF TAF EBAW 030220Z 0303/0315 28006KT 9999 FEW026


Example: see airport list